Latest Weather Observations for Tasman Island

IDT60801

Issued at 3:51 pm EST Wednesday 20 June 2018 (issued every 10 minutes, with the page automatically refreshed every 10 minutes)

About weather observations | Map of weather stations | Latest weather observations for TAS | Other Formats
Station Details ID: 094155 Name: TASMAN ISLAND Lat: -43.24 Lon: 148.00 Height: 240.0 m
Data from the previous 72 hours. | See also: Recent months at Tasman Island
Date/Time
EST
Temp
°C
App
Temp
°C
Dew
Point
°C
Rel
Hum
%
Delta-T
°C
Wind Press
QNH
hPa
Press
MSL
hPa
Rain since
9am
mm
Dir  Spd
km/h
Gust
km/h
Spd
kts
Gust
kts
20/03:30pm 10.6 2.8 4.9 68 2.6 NNE 35 44 19 24 1024.4 1024.7 0.0
20/03:00pm 10.7 2.5 4.6 66 2.8 N 37 50 20 27 1024.7 1025.0 0.0
20/02:30pm 10.6 2.8 4.9 68 2.6 N 35 46 19 25 1024.5 1024.8 0.0
20/02:00pm 10.6 3.3 4.5 66 2.8 N 32 46 17 25 1024.8 1025.1 0.0
20/01:30pm 10.9 3.6 4.6 65 2.9 N 32 48 17 26 1025.2 1025.5 0.0
20/01:15pm 10.8 3.5 4.7 66 2.8 N 32 50 17 27 1025.4 1025.8 0.0
20/01:00pm 10.8 3.3 4.5 65 2.9 N 33 44 18 24 1025.4 1025.8 0.0
20/12:32pm 11.1 3.6 4.6 64 3.0 N 33 54 18 29 1025.7 1026.1 0.0
20/12:30pm 11.0 3.5 4.7 65 2.9 N 33 48 18 26 1025.8 1026.2 0.0
20/12:26pm 11.0 3.5 4.7 65 2.9 N 33 54 18 29 1025.8 1026.2 0.0
20/12:00pm 10.8 2.2 4.5 65 2.9 N 39 54 21 29 1026.1 1026.5 0.0
20/11:30am 10.3 1.7 4.9 69 2.5 N 39 56 21 30 1026.4 1026.8 0.0
20/11:11am 10.2 2.4 4.8 69 2.5 N 35 56 19 30 1026.7 1027.1 0.0
20/11:00am 10.4 3.2 5.0 69 2.5 N 32 48 17 26 1026.8 1027.2 0.0
20/10:32am 10.6 3.3 4.5 66 2.8 NNE 32 50 17 27 1027.2 1027.6 0.0
20/10:30am 10.7 3.4 4.6 66 2.8 NNE 32 48 17 26 1027.2 1027.6 0.0
20/10:03am 10.7 3.2 4.2 64 2.9 N 33 52 18 28 1027.2 1027.6 0.0
20/10:00am 10.8 2.9 4.3 64 2.9 N 35 50 19 27 1027.2 1027.6 0.0
20/09:30am 10.3 2.4 4.2 66 2.7 N 35 57 19 31 1027.3 1027.7 0.0
20/09:07am 10.1 2.5 4.0 66 2.7 N 33 56 18 30 1027.3 1027.7 0.0
20/09:00am 10.1 2.7 4.0 66 2.7 N 32 46 17 25 1027.4 1027.8 0.2
20/08:30am 9.8 3.0 3.3 64 2.9 N 28 57 15 31 1027.4 1027.8 0.2
20/08:00am 9.3 3.3 3.3 66 2.6 NNW 24 57 13 31 1027.3 1027.7 0.2
20/07:30am 9.3 3.7 3.3 66 2.6 NNW 22 52 12 28 1027.2 1027.6 0.2
20/07:23am 9.3 2.5 3.3 66 2.6 N 28 63 15 34 1027.1 1027.5 0.2
20/07:00am 9.3 0.9 3.5 67 2.5 N 37 61 20 33 1027.2 1027.6 0.2
20/06:30am 9.1 2.4 3.7 69 2.4 N 28 48 15 26 1027.3 1027.7 0.2
20/06:21am 9.3 2.7 4.3 71 2.2 NNE 28 48 15 26 1027.3 1027.7 0.2
20/06:00am 9.2 0.2 4.8 74 2.0 N 41 54 22 29 1027.2 1027.6 0.2
20/05:30am 9.4 0.8 4.4 71 2.2 N 39 59 21 32 1027.1 1027.5 0.2
20/05:29am 9.3 0.7 4.5 72 2.2 N 39 59 21 32 1027.0 1027.4 0.2
20/05:00am 9.3 1.0 4.3 71 2.2 N 37 52 20 28 1027.2 1027.6 0.2
20/04:42am 9.3 1.9 4.1 70 2.3 N 32 52 17 28 1027.2 1027.6 0.2
20/04:30am 9.4 1.1 4.2 70 2.3 N 37 54 20 29 1027.2 1027.6 0.2
20/04:05am 9.3 1.4 4.5 72 2.2 N 35 56 19 30 1027.2 1027.6 0.2
20/04:00am 9.4 1.2 4.6 72 2.1 N 37 54 20 29 1027.1 1027.5 0.2
20/03:30am 9.3 0.6 4.3 71 2.2 N 39 63 21 34 1027.0 1027.4 0.2
20/03:06am 9.0 0.3 4.2 72 2.1 N 39 57 21 31 1027.3 1027.7 0.2
20/03:00am 8.9 0.6 4.3 73 2.0 N 37 54 20 29 1027.3 1027.7 0.2
20/02:30am 8.7 -1.3 4.5 75 1.9 N 46 61 25 33 1027.2 1027.6 0.2
20/02:12am 8.7 -2.4 4.5 75 1.9 N 52 70 28 38 1026.9 1027.3 0.2
20/02:00am 8.7 -2.9 4.1 73 2.0 NNE 54 69 29 37 1026.8 1027.2 0.2
20/01:30am 8.3 -3.7 3.9 74 1.9 N 56 69 30 37 1026.9 1027.3 0.2
20/01:01am 8.4 -2.1 3.8 73 2.0 NNE 48 72 26 39 1027.2 1027.6 0.2
20/01:00am 8.4 -2.0 4.0 74 1.9 NNE 48 65 26 35 1027.1 1027.5 0.2
20/12:30am 8.3 -1.7 4.1 75 1.9 N 46 67 25 36 1027.9 1028.2 0.2
20/12:00am 8.3 -1.3 4.3 76 1.8 N 44 57 24 31 1028.3 1028.6 0.2
 
Date/Time
EST
Temp
°C
App
Temp
°C
Dew
Point
°C
Rel
Hum
%
Delta-T
°C
Wind Press
QNH
hPa
Press
MSL
hPa
Rain since
9am
mm
Dir  Spd
km/h
Gust
km/h
Spd
kts
Gust
kts
19/11:30pm 8.4 0.2 4.6 77 1.7 N 37 57 20 31 1029.0 1029.4 0.2
19/11:02pm 8.5 1.7 5.1 79 1.5 N 30 48 16 26 1029.2 1029.6 0.2
19/11:00pm 8.6 1.4 5.2 79 1.5 N 32 50 17 27 1029.2 1029.6 0.2
19/10:46pm 8.7 -0.2 4.9 77 1.7 N 41 59 22 32 1029.0 1029.4 0.2
19/10:30pm 8.7 -0.7 4.7 76 1.8 N 43 56 23 30 1028.8 1029.1 0.2
19/10:05pm 8.7 0.4 4.3 74 2.0 N 37 56 20 30 1028.7 1029.0 0.2
19/10:00pm 8.7 0.5 4.7 76 1.8 NNE 37 52 20 28 1028.7 1029.0 0.2
19/09:30pm 8.6 0.0 4.8 77 1.7 NNE 39 50 21 27 1028.9 1029.3 0.2
19/09:00pm 8.5 1.1 4.9 78 1.6 NNE 33 46 18 25 1029.4 1029.8 0.2
19/08:30pm 8.5 1.2 4.7 77 1.7 NNE 32 43 17 23 1029.8 1030.2 0.2
19/08:00pm 8.4 0.9 4.4 76 1.8 NNE 33 48 18 26 1030.1 1030.5 0.2
19/07:30pm 8.5 1.4 5.3 80 1.5 NNE 32 43 17 23 1029.8 1030.2 0.2
19/07:00pm 8.5 1.8 5.4 81 1.4 NNE 30 46 16 25 1029.8 1030.2 0.2
19/06:30pm 8.4 2.2 6.0 85 1.1 NNE 28 43 15 23 1029.6 1030.0 0.2
19/06:00pm 8.3 2.9 6.4 88 0.9 NNE 24 39 13 21 1029.4 1029.8 0.2
19/05:30pm 7.9 2.9 6.5 91 0.7 NNE 22 35 12 19 1029.5 1029.9 0.2
19/05:00pm 7.8 3.9 7.1 95 0.3 NNE 17 24 9 13 1029.7 1030.1 0.2
19/04:30pm 8.2 2.4 6.3 88 0.9 N 26 35 14 19 1029.9 1030.3 0.0
19/04:00pm 8.2 2.6 7.3 94 0.4 NNE 26 41 14 22 1029.4 1029.8 0.0
19/03:30pm 7.7 2.4 7.0 95 0.3 NNE 24 39 13 21 1029.1 1029.5 0.0
19/03:00pm 7.7 3.2 7.1 96 0.3 NNE 20 39 11 21 1029.2 1029.6 0.0
19/02:30pm 8.1 3.7 7.3 95 0.4 NNE 20 35 11 19 1029.1 1029.5 0.0
19/02:00pm 9.1 4.6 7.1 87 0.9 NNE 20 32 11 17 1028.9 1029.3 0.0
19/01:30pm 8.3 4.7 6.6 89 0.8 NNE 15 30 8 16 1029.0 1029.4 0.0
19/01:00pm 9.2 5.9 6.5 83 1.3 NE 13 28 7 15 1029.1 1029.5 0.0
19/12:30pm 10.0 6.6 6.0 76 1.9 NNE 13 28 7 15 1029.6 1030.0 0.0
19/12:00pm 9.3 6.2 5.7 78 1.6 NNE 11 26 6 14 1029.7 1030.1 0.0
19/11:30am 9.2 6.1 5.6 78 1.7 NNE 11 24 6 13 1030.4 1030.8 0.0
19/11:00am 8.8 6.5 5.7 81 1.4 NNE 7 19 4 10 1030.6 1031.0 0.0
19/10:30am 9.1 5.5 5.1 76 1.8 NNE 13 22 7 12 1030.7 1031.1 0.0
19/10:00am 8.9 6.5 4.3 73 2.0 ESE 6 17 3 9 1030.6 1031.0 0.0
19/09:30am 8.6 5.5 3.8 72 2.1 NE 9 19 5 10 1030.7 1031.1 0.0
19/09:00am 8.7 6.2 3.9 72 2.1 NNE 6 11 3 6 1030.7 1031.1 0.4
19/08:30am 8.0 5.2 3.3 72 2.0 NE 7 13 4 7 1030.7 1031.1 0.4
19/08:00am 8.0 5.8 3.5 73 1.9 NE 4 9 2 5 1030.4 1030.8 0.4
19/07:30am 7.5 4.7 3.0 73 1.9 E 7 11 4 6 1030.2 1030.6 0.4
19/07:00am 7.5 4.9 3.2 74 1.8 NW 6 11 3 6 1030.0 1030.4 0.4
19/06:30am 7.3 5.0 2.8 73 1.9 NE 4 7 2 4 1029.9 1030.3 0.4
19/06:00am 7.3 5.4 2.8 73 1.9 SE 2 7 1 4 1029.8 1030.2 0.4
19/05:30am 7.2 5.6 2.3 71 2.1 CALM 0 0 0 0 1029.8 1030.2 0.4
19/05:00am 7.2 4.8 2.3 71 2.0 NE 4 6 2 3 1029.6 1030.0 0.4
19/04:30am 7.7 5.4 2.6 70 2.2 ESE 4 9 2 5 1029.5 1029.9 0.4
19/04:00am 7.8 5.5 2.7 70 2.1 WSW 4 9 2 5 1029.4 1029.8 0.4
19/03:30am 7.8 4.5 2.3 68 2.3 SE 9 15 5 8 1029.6 1030.0 0.4
19/03:00am 8.3 5.1 3.0 69 2.3 SSE 9 17 5 9 1029.5 1029.9 0.4
19/02:30am 8.1 6.2 2.6 68 2.3 S 2 9 1 5 1029.6 1030.0 0.4
19/02:00am 8.1 5.8 2.6 68 2.3 S 4 11 2 6 1029.6 1030.0 0.4
19/01:30am 8.0 5.3 2.5 68 2.3 SE 6 9 3 5 1029.5 1029.9 0.4
19/01:00am 8.0 6.0 2.3 67 2.4 S 2 6 1 3 1029.5 1029.9 0.4
19/12:30am 8.3 6.0 2.8 68 2.4 WNW 4 11 2 6 1029.5 1029.9 0.4
19/12:00am 8.0 5.3 2.7 69 2.2 SE 6 17 3 9 1029.4 1029.8 0.4
 
Date/Time
EST
Temp
°C
App
Temp
°C
Dew
Point
°C
Rel
Hum
%
Delta-T
°C
Wind Press
QNH
hPa
Press
MSL
hPa
Rain since
9am
mm
Dir  Spd
km/h
Gust
km/h
Spd
kts
Gust
kts
18/11:30pm 7.8 4.9 2.7 70 2.2 S 7 11 4 6 1029.5 1029.9 0.4
18/11:00pm 8.0 4.7 2.3 67 2.4 SSE 9 17 5 9 1029.4 1029.8 0.4
18/10:30pm 8.2 4.2 2.7 68 2.3 SSE 13 22 7 12 1029.2 1029.6 0.4
18/10:00pm 8.3 5.1 2.8 68 2.3 SSE 9 19 5 10 1029.1 1029.5 0.4
18/09:30pm 8.2 4.1 2.2 66 2.5 SSE 13 26 7 14 1029.0 1029.4 0.4
18/09:00pm 8.1 3.7 2.6 68 2.3 SSE 15 22 8 12 1028.9 1029.3 0.4
18/08:30pm 8.1 3.7 2.6 68 2.3 SSE 15 22 8 12 1028.9 1029.3 0.4
18/08:00pm 8.3 3.6 3.0 69 2.3 SSE 17 32 9 17 1028.6 1028.9 0.4
18/07:30pm 8.5 3.8 3.4 70 2.2 S 17 28 9 15 1028.5 1028.8 0.4
18/07:00pm 8.3 3.0 2.1 65 2.6 SSE 19 32 10 17 1028.3 1028.6 0.4
18/06:30pm 8.4 3.9 2.4 66 2.5 S 15 30 8 16 1028.1 1028.4 0.4
18/06:00pm 8.1 2.8 2.1 66 2.5 S 19 30 10 16 1027.7 1028.0 0.4
18/05:30pm 8.5 3.7 2.7 67 2.5 SSE 17 30 9 16 1027.4 1027.8 0.4
18/05:00pm 8.5 3.5 3.8 72 2.0 S 19 35 10 19 1027.3 1027.7 0.4
18/04:30pm 8.3 3.5 2.5 67 2.5 S 17 28 9 15 1027.0 1027.4 0.4
18/04:00pm 8.4 2.7 2.6 67 2.5 SSE 22 32 12 17 1026.8 1027.2 0.4
18/03:30pm 8.6 3.4 3.4 70 2.3 S 20 37 11 20 1026.6 1027.0 0.4
18/03:00pm 9.0 4.2 4.8 75 1.9 S 19 32 10 17 1026.5 1026.9 0.4
18/02:30pm 8.9 3.5 4.5 74 2.0 S 22 41 12 22 1026.1 1026.5 0.4
18/02:00pm 8.7 4.0 5.3 79 1.5 S 19 32 10 17 1025.9 1026.3 0.4
18/01:30pm 8.3 3.2 5.8 84 1.1 S 22 35 12 19 1025.6 1026.0 0.4
18/01:00pm 7.5 2.5 6.4 93 0.5 S 22 35 12 19 1025.5 1025.9 0.4
18/12:30pm 8.0 3.2 7.2 95 0.4 S 22 39 12 21 1025.7 1026.1 0.4
18/12:00pm 7.6 2.3 6.9 95 0.3 SSW 24 43 13 23 1025.7 1026.1 0.4
18/11:30am 8.1 2.5 7.0 93 0.5 SSW 26 39 14 21 1025.7 1026.1 0.4
18/11:00am 7.9 1.8 6.7 92 0.6 SSW 28 46 15 25 1025.7 1026.1 0.0
18/10:56am 7.8 1.7 6.7 93 0.5 SSW 28 46 15 25 1025.8 1026.2 0.0
18/10:30am 7.9 1.4 6.4 90 0.7 SSW 30 39 16 21 1025.7 1026.1 0.0
18/10:00am 7.4 1.0 5.4 87 0.9 SSW 28 39 15 21 1025.6 1026.0 0.0
18/09:30am 7.4 2.0 6.3 93 0.5 SSW 24 41 13 22 1025.4 1025.8 0.0
18/09:00am 7.1 1.0 6.4 95 0.3 SSW 28 44 15 24 1025.2 1025.5 5.6
18/08:30am 7.1 0.5 6.2 94 0.4 SSW 30 41 16 22 1024.8 1025.1 5.6
18/08:00am 6.7 -0.5 5.7 93 0.4 SSW 33 50 18 27 1024.4 1024.7 5.4
18/07:30am 6.6 -0.7 5.4 92 0.5 SSW 33 46 18 25 1024.1 1024.4 5.4
18/07:00am 6.7 -0.6 5.5 92 0.5 SSW 33 48 18 26 1023.8 1024.1 5.4
18/06:31am 6.7 -1.4 5.2 90 0.7 SSW 37 56 20 30 1023.5 1023.8 5.4
18/06:30am 6.6 -2.0 4.9 89 0.8 SSW 39 56 21 30 1023.5 1023.8 5.4
18/06:00am 7.4 0.0 4.0 79 1.5 SSW 32 50 17 27 1023.4 1023.7 5.2
18/05:34am 7.4 0.3 3.8 78 1.6 SSW 30 48 16 26 1023.0 1023.4 5.2
18/05:30am 7.4 -0.1 4.4 81 1.3 SSW 33 48 18 26 1023.0 1023.4 5.2
18/05:07am 7.2 0.0 3.1 75 1.7 SSW 30 48 16 26 1022.7 1023.1 5.2
18/05:00am 7.1 0.0 3.5 78 1.5 SSW 30 46 16 25 1022.7 1023.1 5.2
18/04:31am 7.1 -0.6 3.5 78 1.5 SSW 33 54 18 29 1022.4 1022.8 5.2
18/04:30am 7.1 -0.6 3.5 78 1.5 SSW 33 50 18 27 1022.4 1022.8 5.2
18/04:00am 6.8 -1.0 1.5 69 2.2 SSW 32 46 17 25 1022.4 1022.8 5.2
18/03:32am 6.8 -0.8 2.9 76 1.6 SSW 32 56 17 30 1022.1 1022.5 5.2
18/03:30am 6.8 -1.0 2.9 76 1.6 SSW 33 44 18 24 1022.1 1022.5 5.2
18/03:10am 6.8 -0.8 3.1 77 1.6 SSW 32 52 17 28 1022.1 1022.5 5.2
18/03:00am 6.8 -0.4 2.9 76 1.6 SSW 30 46 16 25 1022.1 1022.5 5.2
18/02:30am 6.8 -1.0 3.1 77 1.6 SSW 33 52 18 28 1022.2 1022.6 5.2
18/02:00am 7.0 -1.4 3.6 79 1.5 SSW 37 57 20 31 1021.7 1022.0 5.2
18/01:33am 7.0 -2.0 4.3 83 1.2 SSW 41 61 22 33 1021.3 1021.6 5.2
18/01:30am 7.1 -1.5 4.6 84 1.1 SSW 39 57 21 31 1021.2 1021.5 5.2
18/01:00am 7.0 -2.0 4.8 86 1.0 SSW 41 61 22 33 1021.1 1021.4 5.2
18/12:56am 7.0 -1.9 5.0 87 0.9 SSW 41 61 22 33 1021.0 1021.3 5.2
18/12:30am 7.3 -0.7 5.6 89 0.8 SSW 37 52 20 28 1020.8 1021.1 5.2
18/12:10am 7.3 -0.6 6.2 93 0.5 SSW 37 57 20 31 1020.8 1021.1 5.2
18/12:00am 7.1 -1.5 6.4 95 0.3 SSW 41 57 22 31 1020.7 1021.0 5.2
 
Date/Time
EST
Temp
°C
App
Temp
°C
Dew
Point
°C
Rel
Hum
%
Delta-T
°C
Wind Press
QNH
hPa
Press
MSL
hPa
Rain since
9am
mm
Dir  Spd
km/h
Gust
km/h
Spd
kts
Gust
kts
17/11:31pm 7.2 -1.3 6.8 97 0.2 SSW 41 59 22 32 1020.6 1020.9 5.0
17/11:30pm 7.2 -1.7 6.8 97 0.2 SSW 43 59 23 32 1020.7 1021.0 5.0
17/11:12pm 7.1 -1.8 6.7 97 0.2 SSW 43 63 23 34 1020.7 1021.0 5.0
17/11:00pm 7.0 -1.6 6.6 97 0.2 SSW 41 57 22 31 1020.5 1020.8 4.8
17/10:30pm 7.4 -0.4 6.8 96 0.3 SSW 37 59 20 32 1020.2 1020.5 4.2
17/10:00pm 7.7 -0.1 6.8 94 0.4 SSW 37 57 20 31 1019.7 1020.0 4.0
17/09:37pm 7.8 0.1 7.1 95 0.3 SSW 37 56 20 30 1019.6 1019.9 4.0
17/09:30pm 7.7 -0.4 7.0 95 0.3 SSW 39 56 21 30 1019.5 1019.8 4.0
17/09:00pm 7.3 -0.1 6.7 96 0.3 SSW 35 56 19 30 1019.2 1019.5 4.0
17/08:30pm 7.8 -0.3 7.2 96 0.3 SSW 39 57 21 31 1018.9 1019.2 3.6
17/08:00pm 7.7 0.4 7.0 95 0.3 SSW 35 57 19 31 1018.5 1018.9 3.6
17/07:33pm 7.9 -0.5 7.3 96 0.3 SSW 41 63 22 34 1018.1 1018.4 3.6
17/07:30pm 7.8 -0.6 7.2 96 0.3 SSW 41 57 22 31 1018.2 1018.5 3.6
17/07:00pm 8.2 0.2 7.6 96 0.3 SSW 39 61 21 33 1017.8 1018.1 3.4
17/06:42pm 7.8 -0.3 7.2 96 0.3 SSW 39 59 21 32 1017.6 1017.9 3.4
17/06:30pm 7.9 -0.1 7.3 96 0.3 SSW 39 56 21 30 1017.2 1017.5 3.4
17/06:00pm 7.8 0.4 6.9 94 0.4 SSW 35 56 19 30 1016.8 1017.1 3.2
17/05:33pm 7.4 0.0 6.7 95 0.3 SSW 35 56 19 30 1016.4 1016.7 2.8
17/05:30pm 7.6 -0.1 6.9 95 0.3 SSW 37 56 20 30 1016.3 1016.6 2.8
17/05:00pm 7.8 0.7 6.6 92 0.6 SSW 33 54 18 29 1015.9 1016.2 2.4
17/04:30pm 7.8 1.3 6.4 91 0.6 S 30 59 16 32 1015.4 1015.7 2.0
17/04:00pm 8.4 2.4 7.0 91 0.7 S 28 50 15 27 1015.0 1015.3 2.0

Other Formats:

Comma delimited format used in spreadsheet applications
http://www.bom.gov.au/fwo/IDT60801/IDT60801.95986.axf

JavaScript Object Notation format (JSON) in row-major order
http://www.bom.gov.au/fwo/IDT60801/IDT60801.95986.json